sensor_id;sensor_type;location;lat;lon;timestamp;P1;durP1;ratioP1;P2;durP2;ratioP2
10596;SDS011;5346;48.766;8.674;2023-01-16T00:01:10;6.40;;;0.83;;
10596;SDS011;5346;48.766;8.674;2023-01-16T00:03:44;1.43;;;0.70;;
10596;SDS011;5346;48.766;8.674;2023-01-16T00:06:12;1.10;;;0.60;;
10596;SDS011;5346;48.766;8.674;2023-01-16T00:08:53;2.20;;;0.77;;
10596;SDS011;5346;48.766;8.674;2023-01-16T00:11:27;3.03;;;0.80;;
10596;SDS011;5346;48.766;8.674;2023-01-16T00:14:01;2.47;;;0.90;;
10596;SDS011;5346;48.766;8.674;2023-01-16T00:16:36;4.23;;;1.03;;
10596;SDS011;5346;48.766;8.674;2023-01-16T00:19:03;1.50;;;0.70;;
10596;SDS011;5346;48.766;8.674;2023-01-16T00:21:39;2.47;;;0.57;;
10596;SDS011;5346;48.766;8.674;2023-01-16T00:24:13;5.47;;;0.80;;
10596;SDS011;5346;48.766;8.674;2023-01-16T00:26:49;4.37;;;1.07;;
10596;SDS011;5346;48.766;8.674;2023-01-16T00:29:17;5.80;;;1.07;;
10596;SDS011;5346;48.766;8.674;2023-01-16T00:31:52;4.53;;;1.00;;
10596;SDS011;5346;48.766;8.674;2023-01-16T00:34:21;2.67;;;0.80;;
10596;SDS011;5346;48.766;8.674;2023-01-16T00:36:49;2.43;;;0.90;;
10596;SDS011;5346;48.766;8.674;2023-01-16T00:39:26;4.37;;;1.00;;
10596;SDS011;5346;48.766;8.674;2023-01-16T00:42:01;4.47;;;1.17;;
10596;SDS011;5346;48.766;8.674;2023-01-16T00:44:34;2.60;;;0.83;;
10596;SDS011;5346;48.766;8.674;2023-01-16T00:47:10;2.93;;;0.97;;
10596;SDS011;5346;48.766;8.674;2023-01-16T00:49:44;3.87;;;0.90;;
10596;SDS011;5346;48.766;8.674;2023-01-16T00:52:11;5.53;;;1.00;;
10596;SDS011;5346;48.766;8.674;2023-01-16T00:54:45;1.27;;;0.57;;
10596;SDS011;5346;48.766;8.674;2023-01-16T00:57:19;2.67;;;0.93;;
10596;SDS011;5346;48.766;8.674;2023-01-16T00:59:53;4.47;;;1.00;;
10596;SDS011;5346;48.766;8.674;2023-01-16T01:02:22;2.70;;;1.07;;
10596;SDS011;5346;48.766;8.674;2023-01-16T01:04:57;2.57;;;0.70;;
10596;SDS011;5346;48.766;8.674;2023-01-16T01:07:25;8.90;;;1.50;;
10596;SDS011;5346;48.766;8.674;2023-01-16T01:09:58;4.70;;;1.17;;
10596;SDS011;5346;48.766;8.674;2023-01-16T01:12:39;9.07;;;1.10;;
10596;SDS011;5346;48.766;8.674;2023-01-16T01:15:07;7.43;;;0.93;;
10596;SDS011;5346;48.766;8.674;2023-01-16T01:17:43;6.50;;;1.67;;
10596;SDS011;5346;48.766;8.674;2023-01-16T01:20:11;7.77;;;1.37;;
10596;SDS011;5346;48.766;8.674;2023-01-16T01:22:45;5.40;;;0.83;;
10596;SDS011;5346;48.766;8.674;2023-01-16T01:25:20;6.13;;;1.03;;
10596;SDS011;5346;48.766;8.674;2023-01-16T01:27:51;4.10;;;1.63;;
10596;SDS011;5346;48.766;8.674;2023-01-16T01:30:25;8.00;;;1.07;;
10596;SDS011;5346;48.766;8.674;2023-01-16T01:32:59;4.87;;;1.10;;
10596;SDS011;5346;48.766;8.674;2023-01-16T01:35:26;5.20;;;1.17;;
10596;SDS011;5346;48.766;8.674;2023-01-16T01:38:00;2.67;;;0.97;;
10596;SDS011;5346;48.766;8.674;2023-01-16T01:40:27;1.97;;;1.00;;
10596;SDS011;5346;48.766;8.674;2023-01-16T01:43:02;6.03;;;0.97;;
10596;SDS011;5346;48.766;8.674;2023-01-16T01:45:37;2.67;;;1.00;;
10596;SDS011;5346;48.766;8.674;2023-01-16T01:50:49;2.50;;;0.83;;
10596;SDS011;5346;48.766;8.674;2023-01-16T01:59:09;7.23;;;1.27;;
10596;SDS011;5346;48.766;8.674;2023-01-16T02:01:43;2.13;;;1.00;;
10596;SDS011;5346;48.766;8.674;2023-01-16T02:04:18;8.47;;;1.47;;
10596;SDS011;5346;48.766;8.674;2023-01-16T02:06:53;2.73;;;0.93;;
10596;SDS011;5346;48.766;8.674;2023-01-16T02:09:36;11.27;;;1.20;;
10596;SDS011;5346;48.766;8.674;2023-01-16T02:12:13;6.33;;;1.40;;
10596;SDS011;5346;48.766;8.674;2023-01-16T02:14:43;4.27;;;1.37;;
10596;SDS011;5346;48.766;8.674;2023-01-16T02:17:19;8.07;;;1.73;;
10596;SDS011;5346;48.766;8.674;2023-01-16T02:28:50;5.17;;;1.17;;
10596;SDS011;5346;48.766;8.674;2023-01-16T02:40:04;1.67;;;0.87;;
10596;SDS011;5346;48.766;8.674;2023-01-16T02:42:58;1.57;;;1.00;;
10596;SDS011;5346;48.766;8.674;2023-01-16T02:48:55;5.83;;;1.30;;
10596;SDS011;5346;48.766;8.674;2023-01-16T02:51:44;9.37;;;1.30;;
10596;SDS011;5346;48.766;8.674;2023-01-16T02:54:37;2.13;;;1.17;;
10596;SDS011;5346;48.766;8.674;2023-01-16T02:57:13;3.43;;;1.10;;
10596;SDS011;5346;48.766;8.674;2023-01-16T02:59:54;4.87;;;1.40;;
10596;SDS011;5346;48.766;8.674;2023-01-16T03:02:28;2.90;;;1.07;;
10596;SDS011;5346;48.766;8.674;2023-01-16T03:05:02;3.40;;;1.20;;
10596;SDS011;5346;48.766;8.674;2023-01-16T03:07:47;5.50;;;1.17;;
10596;SDS011;5346;48.766;8.674;2023-01-16T03:13:50;7.10;;;1.37;;
10596;SDS011;5346;48.766;8.674;2023-01-16T03:19:50;5.00;;;1.47;;
10596;SDS011;5346;48.766;8.674;2023-01-16T03:22:57;4.00;;;0.90;;
10596;SDS011;5346;48.766;8.674;2023-01-16T03:25:56;4.90;;;1.40;;
10596;SDS011;5346;48.766;8.674;2023-01-16T03:34:26;5.77;;;1.20;;
10596;SDS011;5346;48.766;8.674;2023-01-16T03:37:19;2.23;;;1.10;;
10596;SDS011;5346;48.766;8.674;2023-01-16T03:40:17;2.80;;;0.80;;
10596;SDS011;5346;48.766;8.674;2023-01-16T03:43:11;2.87;;;0.80;;
10596;SDS011;5346;48.766;8.674;2023-01-16T03:45:49;6.67;;;1.23;;
10596;SDS011;5346;48.766;8.674;2023-01-16T03:48:36;4.17;;;0.90;;
10596;SDS011;5346;48.766;8.674;2023-01-16T03:51:23;5.30;;;1.17;;
10596;SDS011;5346;48.766;8.674;2023-01-16T03:56:40;5.60;;;1.23;;
10596;SDS011;5346;48.766;8.674;2023-01-16T03:59:23;3.40;;;1.10;;
10596;SDS011;5346;48.766;8.674;2023-01-16T04:01:54;9.17;;;1.70;;
10596;SDS011;5346;48.766;8.674;2023-01-16T04:04:36;3.87;;;1.10;;
10596;SDS011;5346;48.766;8.674;2023-01-16T04:07:26;2.87;;;1.23;;
10596;SDS011;5346;48.766;8.674;2023-01-16T04:10:11;6.33;;;1.10;;
10596;SDS011;5346;48.766;8.674;2023-01-16T04:13:05;2.40;;;1.03;;
10596;SDS011;5346;48.766;8.674;2023-01-16T04:15:44;1.77;;;1.10;;
10596;SDS011;5346;48.766;8.674;2023-01-16T04:18:21;2.63;;;1.10;;
10596;SDS011;5346;48.766;8.674;2023-01-16T04:20:54;2.67;;;1.03;;
10596;SDS011;5346;48.766;8.674;2023-01-16T04:23:28;2.53;;;1.27;;
10596;SDS011;5346;48.766;8.674;2023-01-16T04:26:03;2.37;;;0.90;;
10596;SDS011;5346;48.766;8.674;2023-01-16T04:28:30;3.70;;;0.80;;
10596;SDS011;5346;48.766;8.674;2023-01-16T04:30:58;5.20;;;1.10;;
10596;SDS011;5346;48.766;8.674;2023-01-16T04:33:32;4.00;;;0.70;;
10596;SDS011;5346;48.766;8.674;2023-01-16T04:36:00;3.77;;;1.00;;
10596;SDS011;5346;48.766;8.674;2023-01-16T04:38:31;2.70;;;0.80;;
10596;SDS011;5346;48.766;8.674;2023-01-16T04:41:06;7.07;;;1.17;;
10596;SDS011;5346;48.766;8.674;2023-01-16T04:43:40;8.00;;;1.20;;
10596;SDS011;5346;48.766;8.674;2023-01-16T04:46:07;3.00;;;1.20;;
10596;SDS011;5346;48.766;8.674;2023-01-16T04:48:41;2.20;;;0.93;;
10596;SDS011;5346;48.766;8.674;2023-01-16T04:51:09;5.00;;;1.40;;
10596;SDS011;5346;48.766;8.674;2023-01-16T04:53:43;4.77;;;1.10;;
10596;SDS011;5346;48.766;8.674;2023-01-16T04:56:13;4.80;;;1.10;;
10596;SDS011;5346;48.766;8.674;2023-01-16T04:58:47;6.27;;;1.50;;
10596;SDS011;5346;48.766;8.674;2023-01-16T05:01:19;5.67;;;1.27;;
10596;SDS011;5346;48.766;8.674;2023-01-16T05:03:53;1.70;;;0.90;;
10596;SDS011;5346;48.766;8.674;2023-01-16T05:06:23;2.70;;;1.10;;
10596;SDS011;5346;48.766;8.674;2023-01-16T05:09:04;2.33;;;1.10;;
10596;SDS011;5346;48.766;8.674;2023-01-16T05:11:32;3.53;;;1.53;;
10596;SDS011;5346;48.766;8.674;2023-01-16T05:14:07;7.27;;;1.07;;
10596;SDS011;5346;48.766;8.674;2023-01-16T05:16:43;8.10;;;1.20;;
10596;SDS011;5346;48.766;8.674;2023-01-16T05:19:10;3.17;;;0.97;;
10596;SDS011;5346;48.766;8.674;2023-01-16T05:21:45;4.00;;;1.23;;
10596;SDS011;5346;48.766;8.674;2023-01-16T05:24:19;3.90;;;1.10;;
10596;SDS011;5346;48.766;8.674;2023-01-16T05:26:53;4.30;;;1.20;;
10596;SDS011;5346;48.766;8.674;2023-01-16T05:29:27;5.13;;;1.10;;
10596;SDS011;5346;48.766;8.674;2023-01-16T05:31:55;2.27;;;1.00;;
10596;SDS011;5346;48.766;8.674;2023-01-16T05:34:29;5.33;;;1.10;;
10596;SDS011;5346;48.766;8.674;2023-01-16T05:36:56;6.73;;;1.67;;
10596;SDS011;5346;48.766;8.674;2023-01-16T05:39:24;1.70;;;0.93;;
10596;SDS011;5346;48.766;8.674;2023-01-16T05:41:58;3.17;;;1.40;;
10596;SDS011;5346;48.766;8.674;2023-01-16T05:44:32;5.27;;;1.30;;
10596;SDS011;5346;48.766;8.674;2023-01-16T05:47:01;3.80;;;1.67;;
10596;SDS011;5346;48.766;8.674;2023-01-16T05:49:35;3.03;;;1.13;;
10596;SDS011;5346;48.766;8.674;2023-01-16T05:52:02;5.43;;;1.30;;
10596;SDS011;5346;48.766;8.674;2023-01-16T05:54:36;5.57;;;1.30;;
10596;SDS011;5346;48.766;8.674;2023-01-16T05:57:05;2.60;;;1.43;;
10596;SDS011;5346;48.766;8.674;2023-01-16T05:59:40;4.47;;;1.10;;
10596;SDS011;5346;48.766;8.674;2023-01-16T06:02:18;3.47;;;1.10;;
10596;SDS011;5346;48.766;8.674;2023-01-16T06:04:53;3.20;;;1.00;;
10596;SDS011;5346;48.766;8.674;2023-01-16T06:07:33;3.80;;;1.20;;
10596;SDS011;5346;48.766;8.674;2023-01-16T06:10:05;4.53;;;1.40;;
10596;SDS011;5346;48.766;8.674;2023-01-16T06:12:47;1.37;;;1.10;;
10596;SDS011;5346;48.766;8.674;2023-01-16T06:15:14;4.13;;;1.53;;
10596;SDS011;5346;48.766;8.674;2023-01-16T06:17:48;2.07;;;1.40;;
10596;SDS011;5346;48.766;8.674;2023-01-16T06:20:25;3.80;;;1.70;;
10596;SDS011;5346;48.766;8.674;2023-01-16T06:22:59;3.33;;;1.53;;
10596;SDS011;5346;48.766;8.674;2023-01-16T06:25:28;3.60;;;1.53;;
10596;SDS011;5346;48.766;8.674;2023-01-16T06:28:03;6.13;;;1.43;;
10596;SDS011;5346;48.766;8.674;2023-01-16T06:30:38;4.83;;;1.30;;
10596;SDS011;5346;48.766;8.674;2023-01-16T06:33:15;3.37;;;1.60;;
10596;SDS011;5346;48.766;8.674;2023-01-16T06:35:49;7.53;;;1.87;;
10596;SDS011;5346;48.766;8.674;2023-01-16T06:38:17;3.87;;;1.77;;
10596;SDS011;5346;48.766;8.674;2023-01-16T06:40:50;4.70;;;1.50;;
10596;SDS011;5346;48.766;8.674;2023-01-16T06:43:28;2.90;;;1.50;;
10596;SDS011;5346;48.766;8.674;2023-01-16T06:46:02;2.77;;;1.57;;
10596;SDS011;5346;48.766;8.674;2023-01-16T06:48:36;5.23;;;1.57;;
10596;SDS011;5346;48.766;8.674;2023-01-16T06:51:13;5.10;;;1.80;;
10596;SDS011;5346;48.766;8.674;2023-01-16T06:53:48;3.93;;;1.77;;
10596;SDS011;5346;48.766;8.674;2023-01-16T06:56:22;4.23;;;1.87;;
10596;SDS011;5346;48.766;8.674;2023-01-16T06:58:50;3.53;;;1.73;;
10596;SDS011;5346;48.766;8.674;2023-01-16T07:01:24;2.90;;;1.80;;
10596;SDS011;5346;48.766;8.674;2023-01-16T07:03:52;2.90;;;1.73;;
10596;SDS011;5346;48.766;8.674;2023-01-16T07:06:26;3.87;;;2.10;;
10596;SDS011;5346;48.766;8.674;2023-01-16T07:09:00;3.10;;;1.80;;
10596;SDS011;5346;48.766;8.674;2023-01-16T07:11:41;5.27;;;2.00;;
10596;SDS011;5346;48.766;8.674;2023-01-16T07:14:08;2.90;;;1.90;;
10596;SDS011;5346;48.766;8.674;2023-01-16T07:17:17;3.63;;;1.87;;
10596;SDS011;5346;48.766;8.674;2023-01-16T07:20:12;1.97;;;1.57;;
10596;SDS011;5346;48.766;8.674;2023-01-16T07:23:24;5.17;;;2.00;;
10596;SDS011;5346;48.766;8.674;2023-01-16T07:25:58;6.47;;;1.93;;
10596;SDS011;5346;48.766;8.674;2023-01-16T07:28:36;5.77;;;2.07;;
10596;SDS011;5346;48.766;8.674;2023-01-16T07:31:04;4.23;;;1.90;;
10596;SDS011;5346;48.766;8.674;2023-01-16T07:33:40;2.03;;;1.40;;
10596;SDS011;5346;48.766;8.674;2023-01-16T07:36:14;7.67;;;1.97;;
10596;SDS011;5346;48.766;8.674;2023-01-16T07:38:41;7.17;;;2.47;;
10596;SDS011;5346;48.766;8.674;2023-01-16T07:41:15;3.90;;;2.10;;
10596;SDS011;5346;48.766;8.674;2023-01-16T07:43:49;3.60;;;2.10;;
10596;SDS011;5346;48.766;8.674;2023-01-16T07:46:24;3.07;;;1.70;;
10596;SDS011;5346;48.766;8.674;2023-01-16T07:48:51;3.67;;;1.77;;
10596;SDS011;5346;48.766;8.674;2023-01-16T07:51:28;4.10;;;2.00;;
10596;SDS011;5346;48.766;8.674;2023-01-16T07:54:02;2.73;;;2.10;;
10596;SDS011;5346;48.766;8.674;2023-01-16T07:56:29;3.50;;;1.90;;
10596;SDS011;5346;48.766;8.674;2023-01-16T07:59:03;4.43;;;2.30;;
10596;SDS011;5346;48.766;8.674;2023-01-16T08:01:37;3.33;;;2.17;;
10596;SDS011;5346;48.766;8.674;2023-01-16T08:04:05;5.13;;;2.10;;
10596;SDS011;5346;48.766;8.674;2023-01-16T08:06:39;2.27;;;1.90;;
10596;SDS011;5346;48.766;8.674;2023-01-16T08:09:10;3.83;;;2.40;;
10596;SDS011;5346;48.766;8.674;2023-01-16T08:11:52;4.33;;;2.30;;
10596;SDS011;5346;48.766;8.674;2023-01-16T08:14:19;5.23;;;2.50;;
10596;SDS011;5346;48.766;8.674;2023-01-16T08:16:54;4.90;;;2.30;;
10596;SDS011;5346;48.766;8.674;2023-01-16T08:19:21;5.27;;;2.50;;
10596;SDS011;5346;48.766;8.674;2023-01-16T08:21:55;4.23;;;2.50;;
10596;SDS011;5346;48.766;8.674;2023-01-16T08:24:29;3.00;;;2.13;;
10596;SDS011;5346;48.766;8.674;2023-01-16T08:26:56;6.67;;;2.60;;
10596;SDS011;5346;48.766;8.674;2023-01-16T08:29:31;3.47;;;2.30;;
10596;SDS011;5346;48.766;8.674;2023-01-16T08:32:00;2.93;;;2.17;;
10596;SDS011;5346;48.766;8.674;2023-01-16T08:34:35;3.60;;;2.37;;
10596;SDS011;5346;48.766;8.674;2023-01-16T08:37:09;3.00;;;2.00;;
10596;SDS011;5346;48.766;8.674;2023-01-16T08:39:43;2.60;;;2.00;;
10596;SDS011;5346;48.766;8.674;2023-01-16T08:42:10;2.30;;;2.10;;
10596;SDS011;5346;48.766;8.674;2023-01-16T08:45:03;3.57;;;2.37;;
10596;SDS011;5346;48.766;8.674;2023-01-16T08:47:56;4.80;;;2.00;;
10596;SDS011;5346;48.766;8.674;2023-01-16T08:50:44;3.63;;;2.23;;
10596;SDS011;5346;48.766;8.674;2023-01-16T08:53:38;2.73;;;2.07;;
10596;SDS011;5346;48.766;8.674;2023-01-16T08:56:06;3.33;;;2.30;;
10596;SDS011;5346;48.766;8.674;2023-01-16T08:58:40;2.70;;;2.20;;
10596;SDS011;5346;48.766;8.674;2023-01-16T09:01:14;2.50;;;1.70;;
10596;SDS011;5346;48.766;8.674;2023-01-16T09:03:42;3.70;;;1.80;;
10596;SDS011;5346;48.766;8.674;2023-01-16T09:06:17;2.67;;;1.83;;
10596;SDS011;5346;48.766;8.674;2023-01-16T09:08:44;3.63;;;1.90;;
10596;SDS011;5346;48.766;8.674;2023-01-16T09:11:25;1.77;;;1.40;;
10596;SDS011;5346;48.766;8.674;2023-01-16T09:14:19;2.77;;;1.60;;
10596;SDS011;5346;48.766;8.674;2023-01-16T09:16:51;3.03;;;1.50;;
10596;SDS011;5346;48.766;8.674;2023-01-16T09:19:28;2.30;;;1.57;;
10596;SDS011;5346;48.766;8.674;2023-01-16T09:21:55;1.77;;;1.40;;
10596;SDS011;5346;48.766;8.674;2023-01-16T09:24:29;1.40;;;1.13;;
10596;SDS011;5346;48.766;8.674;2023-01-16T09:27:03;3.10;;;1.53;;
10596;SDS011;5346;48.766;8.674;2023-01-16T09:29:36;1.70;;;1.50;;
10596;SDS011;5346;48.766;8.674;2023-01-16T09:32:10;4.20;;;1.30;;
10596;SDS011;5346;48.766;8.674;2023-01-16T09:34:45;2.70;;;1.10;;
10596;SDS011;5346;48.766;8.674;2023-01-16T09:37:18;1.30;;;1.20;;
10596;SDS011;5346;48.766;8.674;2023-01-16T09:39:54;1.53;;;1.20;;
10596;SDS011;5346;48.766;8.674;2023-01-16T09:42:30;2.20;;;0.93;;
10596;SDS011;5346;48.766;8.674;2023-01-16T09:45:38;1.20;;;1.10;;
10596;SDS011;5346;48.766;8.674;2023-01-16T09:48:26;3.60;;;1.50;;
10596;SDS011;5346;48.766;8.674;2023-01-16T09:51:01;1.13;;;0.90;;
10596;SDS011;5346;48.766;8.674;2023-01-16T09:56:33;2.70;;;0.90;;
10596;SDS011;5346;48.766;8.674;2023-01-16T09:59:36;2.80;;;1.13;;
10596;SDS011;5346;48.766;8.674;2023-01-16T10:04:55;1.07;;;0.77;;
10596;SDS011;5346;48.766;8.674;2023-01-16T10:12:59;0.70;;;0.70;;
10596;SDS011;5346;48.766;8.674;2023-01-16T10:18:45;1.50;;;0.93;;
10596;SDS011;5346;48.766;8.674;2023-01-16T10:24:37;1.20;;;0.63;;
10596;SDS011;5346;48.766;8.674;2023-01-16T10:29:52;2.30;;;0.70;;
10596;SDS011;5346;48.766;8.674;2023-01-16T10:32:26;1.63;;;1.10;;
10596;SDS011;5346;48.766;8.674;2023-01-16T10:37:40;1.73;;;1.00;;
10596;SDS011;5346;48.766;8.674;2023-01-16T10:40:25;3.13;;;0.97;;
10596;SDS011;5346;48.766;8.674;2023-01-16T10:43:09;1.57;;;1.00;;
10596;SDS011;5346;48.766;8.674;2023-01-16T10:46:12;1.00;;;0.70;;
10596;SDS011;5346;48.766;8.674;2023-01-16T10:49:17;1.80;;;0.87;;
10596;SDS011;5346;48.766;8.674;2023-01-16T10:52:01;1.00;;;0.70;;
10596;SDS011;5346;48.766;8.674;2023-01-16T10:54:37;1.27;;;0.97;;
10596;SDS011;5346;48.766;8.674;2023-01-16T10:57:12;2.83;;;0.83;;
10596;SDS011;5346;48.766;8.674;2023-01-16T10:59:50;1.50;;;0.90;;
10596;SDS011;5346;48.766;8.674;2023-01-16T11:02:30;0.90;;;0.80;;
10596;SDS011;5346;48.766;8.674;2023-01-16T11:05:26;1.50;;;1.00;;
10596;SDS011;5346;48.766;8.674;2023-01-16T11:08:09;1.47;;;0.83;;
10596;SDS011;5346;48.766;8.674;2023-01-16T11:10:54;0.70;;;0.60;;
10596;SDS011;5346;48.766;8.674;2023-01-16T11:13:30;1.10;;;0.80;;
10596;SDS011;5346;48.766;8.674;2023-01-16T11:16:22;0.83;;;0.77;;
10596;SDS011;5346;48.766;8.674;2023-01-16T11:19:20;1.03;;;0.80;;
10596;SDS011;5346;48.766;8.674;2023-01-16T11:21:57;0.73;;;0.73;;
10596;SDS011;5346;48.766;8.674;2023-01-16T11:24:35;3.17;;;0.90;;
10596;SDS011;5346;48.766;8.674;2023-01-16T11:27:18;0.90;;;0.80;;
10596;SDS011;5346;48.766;8.674;2023-01-16T11:29:51;1.27;;;1.00;;
10596;SDS011;5346;48.766;8.674;2023-01-16T11:32:27;2.23;;;0.90;;
10596;SDS011;5346;48.766;8.674;2023-01-16T11:34:58;1.40;;;1.10;;
10596;SDS011;5346;48.766;8.674;2023-01-16T11:37:28;1.17;;;1.07;;
10596;SDS011;5346;48.766;8.674;2023-01-16T11:40:02;2.23;;;1.20;;
10596;SDS011;5346;48.766;8.674;2023-01-16T11:42:32;3.13;;;1.13;;
10596;SDS011;5346;48.766;8.674;2023-01-16T11:45:25;2.33;;;1.07;;
10596;SDS011;5346;48.766;8.674;2023-01-16T11:48:20;4.77;;;1.30;;
10596;SDS011;5346;48.766;8.674;2023-01-16T11:50:56;1.43;;;1.20;;
10596;SDS011;5346;48.766;8.674;2023-01-16T11:53:32;1.17;;;1.00;;
10596;SDS011;5346;48.766;8.674;2023-01-16T12:05:30;1.10;;;0.90;;
10596;SDS011;5346;48.766;8.674;2023-01-16T12:20:05;4.27;;;1.33;;
10596;SDS011;5346;48.766;8.674;2023-01-16T12:34:52;2.43;;;1.27;;
10596;SDS011;5346;48.766;8.674;2023-01-16T12:38:12;3.77;;;1.10;;
10596;SDS011;5346;48.766;8.674;2023-01-16T12:44:09;1.30;;;1.20;;
10596;SDS011;5346;48.766;8.674;2023-01-16T12:46:56;1.30;;;1.20;;
10596;SDS011;5346;48.766;8.674;2023-01-16T12:49:36;1.70;;;1.20;;
10596;SDS011;5346;48.766;8.674;2023-01-16T12:52:22;1.30;;;1.20;;
10596;SDS011;5346;48.766;8.674;2023-01-16T12:58:17;2.87;;;1.43;;
10596;SDS011;5346;48.766;8.674;2023-01-16T13:03:49;1.30;;;1.20;;
10596;SDS011;5346;48.766;8.674;2023-01-16T13:06:42;2.63;;;1.17;;
10596;SDS011;5346;48.766;8.674;2023-01-16T13:09:36;1.47;;;1.30;;
10596;SDS011;5346;48.766;8.674;2023-01-16T13:13:07;1.20;;;1.10;;
10596;SDS011;5346;48.766;8.674;2023-01-16T13:15:50;2.17;;;1.37;;
10596;SDS011;5346;48.766;8.674;2023-01-16T13:18:39;1.37;;;1.27;;
10596;SDS011;5346;48.766;8.674;2023-01-16T13:21:27;1.43;;;1.33;;
10596;SDS011;5346;48.766;8.674;2023-01-16T13:24:08;3.30;;;1.07;;
10596;SDS011;5346;48.766;8.674;2023-01-16T13:26:53;2.70;;;1.30;;
10596;SDS011;5346;48.766;8.674;2023-01-16T13:29:33;1.40;;;1.20;;
10596;SDS011;5346;48.766;8.674;2023-01-16T13:35:21;1.27;;;1.10;;
10596;SDS011;5346;48.766;8.674;2023-01-16T13:46:42;1.03;;;0.90;;
10596;SDS011;5346;48.766;8.674;2023-01-16T13:49:15;0.73;;;0.60;;
10596;SDS011;5346;48.766;8.674;2023-01-16T13:51:54;1.07;;;0.97;;
10596;SDS011;5346;48.766;8.674;2023-01-16T13:54:35;1.17;;;1.00;;
10596;SDS011;5346;48.766;8.674;2023-01-16T13:57:18;2.60;;;1.13;;
10596;SDS011;5346;48.766;8.674;2023-01-16T13:59:56;1.30;;;1.20;;
10596;SDS011;5346;48.766;8.674;2023-01-16T14:02:45;1.83;;;1.13;;
10596;SDS011;5346;48.766;8.674;2023-01-16T14:14:20;3.07;;;1.20;;
10596;SDS011;5346;48.766;8.674;2023-01-16T14:17:21;2.10;;;1.30;;
10596;SDS011;5346;48.766;8.674;2023-01-16T14:19:59;1.50;;;1.20;;
10596;SDS011;5346;48.766;8.674;2023-01-16T14:22:35;1.47;;;1.20;;
10596;SDS011;5346;48.766;8.674;2023-01-16T14:25:16;1.20;;;1.10;;
10596;SDS011;5346;48.766;8.674;2023-01-16T14:27:53;1.93;;;1.40;;
10596;SDS011;5346;48.766;8.674;2023-01-16T14:30:29;3.73;;;1.30;;
10596;SDS011;5346;48.766;8.674;2023-01-16T14:33:11;1.50;;;1.40;;
10596;SDS011;5346;48.766;8.674;2023-01-16T14:35:50;2.17;;;1.20;;
10596;SDS011;5346;48.766;8.674;2023-01-16T14:38:28;1.73;;;1.33;;
10596;SDS011;5346;48.766;8.674;2023-01-16T14:41:03;1.80;;;1.43;;
10596;SDS011;5346;48.766;8.674;2023-01-16T14:56:26;1.30;;;1.20;;
10596;SDS011;5346;48.766;8.674;2023-01-16T15:01:49;2.37;;;1.40;;
10596;SDS011;5346;48.766;8.674;2023-01-16T15:07:56;1.87;;;1.53;;
10596;SDS011;5346;48.766;8.674;2023-01-16T15:10:38;4.03;;;1.57;;
10596;SDS011;5346;48.766;8.674;2023-01-16T15:13:22;7.03;;;1.50;;
10596;SDS011;5346;48.766;8.674;2023-01-16T15:15:59;2.30;;;1.63;;
10596;SDS011;5346;48.766;8.674;2023-01-16T15:18:29;1.43;;;1.27;;
10596;SDS011;5346;48.766;8.674;2023-01-16T15:21:22;2.13;;;1.30;;
10596;SDS011;5346;48.766;8.674;2023-01-16T15:24:08;1.87;;;1.40;;
10596;SDS011;5346;48.766;8.674;2023-01-16T15:32:13;1.40;;;1.30;;
10596;SDS011;5346;48.766;8.674;2023-01-16T15:34:47;1.50;;;1.40;;
10596;SDS011;5346;48.766;8.674;2023-01-16T15:37:46;1.53;;;1.43;;
10596;SDS011;5346;48.766;8.674;2023-01-16T15:40:28;1.63;;;1.40;;
10596;SDS011;5346;48.766;8.674;2023-01-16T15:43:03;1.60;;;1.30;;
10596;SDS011;5346;48.766;8.674;2023-01-16T15:46:02;1.30;;;1.17;;
10596;SDS011;5346;48.766;8.674;2023-01-16T15:51:56;2.13;;;1.60;;
10596;SDS011;5346;48.766;8.674;2023-01-16T15:54:27;1.73;;;1.57;;
10596;SDS011;5346;48.766;8.674;2023-01-16T15:57:03;1.60;;;1.50;;
10596;SDS011;5346;48.766;8.674;2023-01-16T15:59:51;1.30;;;1.20;;
10596;SDS011;5346;48.766;8.674;2023-01-16T16:02:29;1.30;;;1.20;;
10596;SDS011;5346;48.766;8.674;2023-01-16T16:05:00;1.00;;;0.93;;
10596;SDS011;5346;48.766;8.674;2023-01-16T16:07:35;1.90;;;1.00;;
10596;SDS011;5346;48.766;8.674;2023-01-16T16:10:11;1.00;;;0.70;;
10596;SDS011;5346;48.766;8.674;2023-01-16T16:13:05;0.83;;;0.80;;
10596;SDS011;5346;48.766;8.674;2023-01-16T16:15:54;1.50;;;0.70;;
10596;SDS011;5346;48.766;8.674;2023-01-16T16:21:29;0.83;;;0.67;;
10596;SDS011;5346;48.766;8.674;2023-01-16T16:24:28;0.60;;;0.60;;
10596;SDS011;5346;48.766;8.674;2023-01-16T16:27:07;1.03;;;0.50;;
10596;SDS011;5346;48.766;8.674;2023-01-16T16:29:50;1.03;;;0.67;;
10596;SDS011;5346;48.766;8.674;2023-01-16T16:32:26;0.93;;;0.53;;
10596;SDS011;5346;48.766;8.674;2023-01-16T16:35:02;0.40;;;0.33;;
10596;SDS011;5346;48.766;8.674;2023-01-16T16:37:40;1.83;;;1.50;;
10596;SDS011;5346;48.766;8.674;2023-01-16T16:40:12;0.60;;;0.50;;
10596;SDS011;5346;48.766;8.674;2023-01-16T16:42:49;0.70;;;0.50;;
10596;SDS011;5346;48.766;8.674;2023-01-16T16:45:29;1.03;;;0.87;;
10596;SDS011;5346;48.766;8.674;2023-01-16T16:48:18;0.20;;;0.20;;
10596;SDS011;5346;48.766;8.674;2023-01-16T16:50:58;0.37;;;0.30;;
10596;SDS011;5346;48.766;8.674;2023-01-16T16:53:52;0.67;;;0.53;;
10596;SDS011;5346;48.766;8.674;2023-01-16T16:56:23;0.13;;;0.13;;
10596;SDS011;5346;48.766;8.674;2023-01-16T16:58:59;1.80;;;0.40;;
10596;SDS011;5346;48.766;8.674;2023-01-16T17:01:35;2.00;;;0.10;;
10596;SDS011;5346;48.766;8.674;2023-01-16T17:04:16;0.27;;;0.20;;
10596;SDS011;5346;48.766;8.674;2023-01-16T17:06:51;0.23;;;0.10;;
10596;SDS011;5346;48.766;8.674;2023-01-16T17:09:19;0.10;;;0.10;;
10596;SDS011;5346;48.766;8.674;2023-01-16T17:12:11;0.10;;;0.00;;
10596;SDS011;5346;48.766;8.674;2023-01-16T17:14:47;0.70;;;0.23;;
10596;SDS011;5346;48.766;8.674;2023-01-16T17:17:21;0.40;;;0.20;;
10596;SDS011;5346;48.766;8.674;2023-01-16T17:19:49;0.17;;;0.03;;
10596;SDS011;5346;48.766;8.674;2023-01-16T17:22:22;0.37;;;0.37;;
10596;SDS011;5346;48.766;8.674;2023-01-16T17:24:50;0.20;;;0.17;;
10596;SDS011;5346;48.766;8.674;2023-01-16T17:27:27;0.00;;;0.00;;
10596;SDS011;5346;48.766;8.674;2023-01-16T17:29:56;0.10;;;0.07;;
10596;SDS011;5346;48.766;8.674;2023-01-16T17:32:30;0.30;;;0.30;;
10596;SDS011;5346;48.766;8.674;2023-01-16T17:35:08;0.07;;;0.07;;
10596;SDS011;5346;48.766;8.674;2023-01-16T17:37:48;0.30;;;0.17;;
10596;SDS011;5346;48.766;8.674;2023-01-16T17:40:16;0.50;;;0.47;;
10596;SDS011;5346;48.766;8.674;2023-01-16T17:42:49;0.10;;;0.10;;
10596;SDS011;5346;48.766;8.674;2023-01-16T17:45:38;0.00;;;0.00;;
10596;SDS011;5346;48.766;8.674;2023-01-16T17:48:32;0.10;;;0.10;;
10596;SDS011;5346;48.766;8.674;2023-01-16T17:51:00;0.10;;;0.10;;
10596;SDS011;5346;48.766;8.674;2023-01-16T17:53:33;0.10;;;0.10;;
10596;SDS011;5346;48.766;8.674;2023-01-16T17:56:09;0.00;;;0.00;;
10596;SDS011;5346;48.766;8.674;2023-01-16T17:58:46;0.67;;;0.53;;
10596;SDS011;5346;48.766;8.674;2023-01-16T18:01:26;1.17;;;1.07;;
10596;SDS011;5346;48.766;8.674;2023-01-16T18:04:03;1.17;;;0.80;;
10596;SDS011;5346;48.766;8.674;2023-01-16T18:06:41;5.03;;;1.93;;
10596;SDS011;5346;48.766;8.674;2023-01-16T18:09:10;1.67;;;1.57;;
10596;SDS011;5346;48.766;8.674;2023-01-16T18:12:01;0.20;;;0.20;;
10596;SDS011;5346;48.766;8.674;2023-01-16T18:14:47;1.60;;;0.20;;
10596;SDS011;5346;48.766;8.674;2023-01-16T18:17:40;0.10;;;0.10;;
10596;SDS011;5346;48.766;8.674;2023-01-16T18:20:07;2.33;;;0.43;;
10596;SDS011;5346;48.766;8.674;2023-01-16T18:22:46;0.63;;;0.47;;
10596;SDS011;5346;48.766;8.674;2023-01-16T18:25:20;0.50;;;0.30;;
10596;SDS011;5346;48.766;8.674;2023-01-16T18:27:54;0.67;;;0.17;;
10596;SDS011;5346;48.766;8.674;2023-01-16T18:30:28;0.53;;;0.47;;
10596;SDS011;5346;48.766;8.674;2023-01-16T18:32:57;0.47;;;0.43;;
10596;SDS011;5346;48.766;8.674;2023-01-16T18:35:32;0.97;;;0.37;;
10596;SDS011;5346;48.766;8.674;2023-01-16T18:38:01;0.80;;;0.43;;
10596;SDS011;5346;48.766;8.674;2023-01-16T18:40:55;0.77;;;0.27;;
10596;SDS011;5346;48.766;8.674;2023-01-16T18:43:42;0.20;;;0.20;;
10596;SDS011;5346;48.766;8.674;2023-01-16T18:46:35;1.70;;;0.43;;